Time;durP1;ratioP1;P1;durP2;ratioP2;P2;SDS_P1;SDS_P2;PMS_P1;PMS_P2;Temp;Humidity;BMP_temperature;BMP_pressure;BME280_temperature;BME280_humidity;BME280_pressure;Samples;Min_cycle;Max_cycle;Signal;HPM_P1;HPM_P2
2021/05/06 00:00:25;;;;;;;4.50;2.90;;;;;;;0.46;100.00;92662.59;2063882;28;20038;-87
2021/05/06 00:32:28;;;;;;;2.67;2.47;;;;;;;0.32;100.00;92638.06;2105274;28;20024;-87
2021/05/06 00:33:28;;;;;;;4.78;2.92;;;;;;;0.41;100.00;92649.03;2105433;28;20026;-88
2021/05/06 00:34:29;;;;;;;3.75;3.15;;;;;;;0.43;100.00;92644.16;2097929;28;20029;-86
2021/05/06 00:35:33;;;;;;;4.55;3.08;;;;;;;0.40;100.00;92647.53;2081819;28;20064;-86
2021/05/06 00:36:35;;;;;;;3.97;2.88;;;;;;;0.44;100.00;92651.69;2089055;28;20038;-85
2021/05/06 00:37:45;;;;;;;4.63;3.13;;;;;;;0.40;100.00;92634.38;2093580;28;20036;-83
2021/05/06 00:38:55;;;;;;;4.40;2.90;;;;;;;0.42;100.00;92640.78;2087405;28;20025;-87
2021/05/06 00:40:02;;;;;;;;;;;;;;;0.36;100.00;92636.97;2089749;28;20102;-87
2021/05/06 01:05:26;;;;;;;2.72;2.10;;;;;;;0.36;100.00;92618.56;2123910;27;20027;-87
2021/05/06 01:06:28;;;;;;;;;;;;;;;0.46;100.00;92627.66;2101497;28;20024;-84
2021/05/06 01:07:41;;;;;;;3.20;2.30;;;;;;;0.50;100.00;92620.56;2093037;28;19908;-85
2021/05/06 01:11:40;;;;;;;3.13;2.60;;;;;;;0.36;100.00;92615.19;2100414;28;20511;-84
2021/05/06 01:12:42;;;;;;;4.85;2.40;;;;;;;0.33;100.00;92627.19;2094442;28;20021;-87
2021/05/06 01:13:45;;;;;;;3.90;2.90;;;;;;;0.36;100.00;92625.72;2097916;28;20103;-86
2021/05/06 01:14:46;;;;;;;3.58;2.90;;;;;;;0.34;100.00;92620.03;2097134;28;20035;-85
2021/05/06 01:15:47;;;;;;;4.05;2.60;;;;;;;0.35;100.00;92618.91;2097806;28;20547;-85
2021/05/06 01:16:47;;;;;;;3.67;2.65;;;;;;;0.47;100.00;92616.03;2101963;28;20088;-85
2021/05/06 01:17:48;;;;;;;4.55;2.90;;;;;;;0.42;100.00;92614.47;2097902;28;20432;-86
2021/05/06 01:18:49;;;;;;;3.20;2.90;;;;;;;0.45;100.00;92613.75;2104580;28;20090;-86
2021/05/06 01:19:49;;;;;;;6.47;3.05;;;;;;;0.46;100.00;92615.28;2111245;28;20497;-86
2021/05/06 01:20:55;;;;;;;4.35;2.83;;;;;;;0.50;100.00;92612.66;2107005;28;20110;-83
2021/05/06 01:21:56;;;;;;;4.03;2.80;;;;;;;0.48;100.00;92605.16;2099824;28;20100;-85
2021/05/06 01:22:56;;;;;;;5.85;2.85;;;;;;;0.41;100.00;92612.22;2112238;28;20023;-87
2021/05/06 01:23:57;;;;;;;7.15;3.22;;;;;;;0.40;100.00;92614.09;2106019;28;20020;-85
2021/05/06 01:24:59;;;;;;;3.10;2.80;;;;;;;0.41;100.00;92612.22;2106050;28;20020;-87
2021/05/06 01:26:16;;;;;;;4.45;2.85;;;;;;;0.40;100.00;92608.84;2097037;28;20417;-85
2021/05/06 01:27:56;;;;;;;7.07;3.50;;;;;;;0.40;100.00;92602.84;2085435;28;20362;-86
2021/05/06 01:28:47;;;;;;;2.47;2.28;;;;;;;0.48;100.00;92599.91;2100664;28;20059;-84
2021/05/06 01:31:06;;;;;;;6.95;2.90;;;;;;;0.34;100.00;92609.53;2106923;28;20030;-84
2021/05/06 01:33:17;;;;;;;2.65;2.33;;;;;;;0.42;100.00;92613.72;2106150;28;20404;-84
2021/05/06 01:34:21;;;;;;;3.25;2.63;;;;;;;0.37;100.00;92611.44;2098876;28;20404;-85
2021/05/06 01:35:34;;;;;;;5.10;2.60;;;;;;;0.35;100.00;92603.94;2098445;28;20027;-84
2021/05/06 01:36:39;;;;;;;4.05;2.88;;;;;;;0.33;100.00;92597.50;2098633;28;20094;-85
2021/05/06 01:45:27;;;;;;;4.15;3.20;;;;;;;0.57;100.00;92596.97;2105769;28;20027;-87
2021/05/06 01:57:30;;;;;;;3.60;2.90;;;;;;;0.62;100.00;92591.34;2101760;28;20088;-86
2021/05/06 01:58:04;;;;;;;2.33;1.80;;;;;;;0.65;100.00;92600.38;2095789;28;20108;-85
2021/05/06 02:00:22;;;;;;;3.60;2.30;;;;;;;0.72;100.00;92587.28;2109804;28;20493;-85
2021/05/06 02:01:23;;;;;;;3.72;1.85;;;;;;;0.70;100.00;92586.88;2097778;28;20063;-86
2021/05/06 02:02:23;;;;;;;5.10;2.13;;;;;;;0.75;100.00;92583.94;2089373;28;20053;-85
2021/05/06 02:03:24;;;;;;;3.35;2.33;;;;;;;0.66;100.00;92589.50;2089257;28;20037;-85
2021/05/06 02:04:25;;;;;;;3.08;2.10;;;;;;;0.68;100.00;92591.75;2089160;28;20029;-87
2021/05/06 02:05:26;;;;;;;4.28;2.03;;;;;;;0.70;100.00;92578.97;2106137;28;20448;-84
2021/05/06 02:06:26;;;;;;;2.55;1.95;;;;;;;0.70;100.00;92569.25;2114563;28;20368;-87
2021/05/06 02:07:27;;;;;;;4.10;2.22;;;;;;;0.72;100.00;92572.25;2097835;28;20039;-90
2021/05/06 02:08:29;;;;;;;8.02;2.05;;;;;;;0.69;100.00;92565.09;2089169;28;20100;-87
2021/05/06 02:09:29;;;;;;;4.13;2.22;;;;;;;0.76;100.00;92567.00;2103817;28;20039;-86
2021/05/06 02:10:30;;;;;;;3.30;2.30;;;;;;;0.64;100.00;92564.69;2105932;28;20031;-84
2021/05/06 02:11:31;;;;;;;2.85;1.92;;;;;;;0.67;100.00;92558.69;2105971;28;20032;-86
2021/05/06 02:12:32;;;;;;;2.65;1.92;;;;;;;0.67;100.00;92564.72;2092259;28;20129;-85
2021/05/06 02:13:33;;;;;;;2.30;1.92;;;;;;;0.69;100.00;92565.09;2087913;28;20060;-85
2021/05/06 02:14:33;;;;;;;3.17;2.38;;;;;;;0.71;100.00;92556.84;2086616;28;20024;-86
2021/05/06 02:15:40;;;;;;;3.92;1.83;;;;;;;0.73;100.00;92562.47;2090520;28;20104;-85
2021/05/06 02:16:40;;;;;;;3.67;2.17;;;;;;;0.69;100.00;92557.19;2095691;28;20052;-86
2021/05/06 02:17:42;;;;;;;2.75;2.00;;;;;;;0.65;100.00;92553.78;2088316;28;20035;-83
2021/05/06 02:18:44;;;;;;;3.30;1.95;;;;;;;0.65;100.00;92553.03;2096808;28;20082;-85
2021/05/06 02:19:48;;;;;;;2.47;2.00;;;;;;;0.66;100.00;92559.78;2100613;28;20058;-85
2021/05/06 02:20:50;;;;;;;4.43;2.22;;;;;;;0.69;100.00;92564.34;2102573;28;20028;-87
2021/05/06 02:21:51;;;;;;;3.67;2.70;;;;;;;0.70;100.00;92550.84;2096266;28;20032;-86
2021/05/06 02:22:52;;;;;;;2.55;2.10;;;;;;;0.68;100.00;92553.06;2092457;28;20032;-87
2021/05/06 02:23:52;;;;;;;4.07;2.00;;;;;;;0.71;100.00;92557.59;2098367;28;20032;-87
2021/05/06 02:24:53;;;;;;;3.95;2.10;;;;;;;0.68;100.00;92555.69;2097557;28;20063;-86
2021/05/06 02:25:54;;;;;;;4.47;2.38;;;;;;;0.65;100.00;92559.03;2089097;28;20029;-86
2021/05/06 02:26:54;;;;;;;3.05;2.10;;;;;;;0.56;100.00;92558.63;2089138;28;20033;-87
2021/05/06 02:27:55;;;;;;;3.40;2.10;;;;;;;0.56;100.00;92548.09;2089220;28;20028;-87
2021/05/06 02:28:56;;;;;;;2.63;2.00;;;;;;;0.57;100.00;92547.00;2089264;28;20029;-87
2021/05/06 02:29:56;;;;;;;2.50;2.20;;;;;;;0.57;100.00;92554.88;2105882;28;20047;-86
2021/05/06 02:30:57;;;;;;;3.67;1.85;;;;;;;0.52;100.00;92546.56;2096430;28;20425;-86
2021/05/06 02:31:58;;;;;;;5.05;2.00;;;;;;;0.47;100.00;92535.28;2089239;28;20028;-84
2021/05/06 02:32:59;;;;;;;3.00;1.90;;;;;;;0.53;100.00;92540.97;2097846;28;20039;-84
2021/05/06 02:33:59;;;;;;;5.45;2.58;;;;;;;0.49;100.00;92538.31;2097525;28;20066;-86
2021/05/06 02:35:00;;;;;;;2.00;1.90;;;;;;;0.53;100.00;92532.28;2088659;28;20021;-86
2021/05/06 02:36:00;;;;;;;5.57;2.17;;;;;;;0.47;100.00;92531.88;2097416;28;20025;-87
2021/05/06 02:37:04;;;;;;;5.95;2.30;;;;;;;0.46;100.00;92527.75;2089712;28;20045;-87
2021/05/06 02:38:07;;;;;;;3.55;2.00;;;;;;;0.51;100.00;92532.66;2097879;28;20470;-83
2021/05/06 02:39:07;;;;;;;2.45;2.13;;;;;;;0.41;100.00;92528.09;2091674;28;20324;-85
2021/05/06 02:40:10;;;;;;;3.13;2.20;;;;;;;0.38;100.00;92523.56;2097517;28;20042;-87
2021/05/06 02:41:11;;;;;;;3.78;1.80;;;;;;;0.36;100.00;92531.84;2094179;28;20059;-87
2021/05/06 02:42:12;;;;;;;3.17;2.00;;;;;;;0.31;100.00;92531.41;2096204;28;20028;-85
2021/05/06 02:43:13;;;;;;;3.33;2.03;;;;;;;0.31;100.00;92528.78;2089276;28;20048;-88
2021/05/06 02:44:14;;;;;;;4.18;1.90;;;;;;;0.31;100.00;92526.91;2097343;28;20029;-87
2021/05/06 02:45:15;;;;;;;3.00;1.83;;;;;;;0.29;100.00;92523.13;2099350;28;20389;-88
2021/05/06 02:46:16;;;;;;;4.10;2.03;;;;;;;0.22;100.00;92532.50;2095350;28;20032;-87
2021/05/06 02:47:17;;;;;;;3.97;1.90;;;;;;;0.29;100.00;92531.03;2097126;28;20380;-84
2021/05/06 02:48:17;;;;;;;2.78;2.10;;;;;;;0.20;100.00;92523.44;2103591;28;20576;-87
2021/05/06 02:49:20;;;;;;;3.60;2.65;;;;;;;0.23;100.00;92522.72;2105138;28;20116;-87
2021/05/06 02:50:23;;;;;;;5.20;2.05;;;;;;;0.26;100.00;92521.97;2097813;28;20074;-86
2021/05/06 02:51:29;;;;;;;2.17;1.98;;;;;;;0.20;100.00;92523.44;2094711;28;20029;-89
2021/05/06 02:52:34;;;;;;;4.10;2.38;;;;;;;0.23;100.00;92526.09;2098993;28;20030;-86
2021/05/06 02:53:37;;;;;;;2.50;2.00;;;;;;;0.15;100.00;92524.53;2120444;28;20353;-83
2021/05/06 02:54:42;;;;;;;3.75;2.20;;;;;;;0.18;100.00;92529.09;2115882;28;20027;-87
2021/05/06 02:57:22;;;;;;;7.20;2.60;;;;;;;0.22;100.00;92526.44;2108259;28;20554;-88
2021/05/06 03:04:00;;;;;;;2.05;1.80;;;;;;;0.28;100.00;92514.50;2115571;28;20060;-86
2021/05/06 03:04:54;;;;;;;4.10;1.80;;;;;;;0.34;100.00;92515.66;2101303;28;20048;-85
2021/05/06 03:05:56;;;;;;;4.30;2.28;;;;;;;0.30;100.00;92517.50;2098925;28;20078;-84
2021/05/06 03:07:05;;;;;;;4.50;2.00;;;;;;;0.32;100.00;92512.66;2086406;28;20028;-84
2021/05/06 03:08:11;;;;;;;6.45;2.38;;;;;;;0.32;100.00;92511.91;2093634;28;20032;-85
2021/05/06 03:11:56;;;;;;;3.17;2.30;;;;;;;0.28;100.00;92504.00;2109680;28;20145;-83
2021/05/06 03:13:20;;;;;;;4.25;2.22;;;;;;;0.24;100.00;92503.22;2109388;28;20035;-87
2021/05/06 03:14:36;;;;;;;3.38;2.05;;;;;;;0.32;100.00;92510.03;2105591;28;20065;-87
2021/05/06 03:23:41;;;;;;;3.50;2.30;;;;;;;0.36;100.00;92495.03;2104909;28;20499;-85
2021/05/06 03:24:45;;;;;;;1.75;1.65;;;;;;;0.35;100.00;92498.78;2107261;28;20027;-84
2021/05/06 03:25:46;;;;;;;4.53;2.17;;;;;;;0.35;100.00;92496.16;2093487;28;20020;-84
2021/05/06 03:26:47;;;;;;;6.90;2.58;;;;;;;0.32;100.00;92499.50;2098671;28;20036;-87
2021/05/06 03:28:02;;;;;;;4.68;2.75;;;;;;;0.33;100.00;92495.75;2090659;28;20021;-86
2021/05/06 03:29:11;;;;;;;7.00;2.80;;;;;;;0.37;100.00;92488.66;2088114;28;20022;-88
2021/05/06 03:35:13;;;;;;;8.23;2.60;;;;;;;0.49;100.00;92492.84;2108884;28;20537;-85
2021/05/06 03:41:45;;;;;;;;;;;;;;;0.48;100.00;92492.09;2110804;28;20045;-85
2021/05/06 03:43:06;;;;;;;4.20;2.42;;;;;;;0.45;100.00;92490.19;2103761;28;19915;-85
2021/05/06 03:44:29;;;;;;;7.15;2.63;;;;;;;0.54;100.00;92487.25;2109516;28;20024;-84
2021/05/06 03:45:54;;;;;;;6.55;3.10;;;;;;;0.54;100.00;92483.88;2109884;28;20024;-84
2021/05/06 04:12:03;;;;;;;9.93;3.40;;;;;;;0.92;100.00;92493.03;2107477;28;20449;-86
2021/05/06 04:18:26;;;;;;;12.05;6.55;;;;;;;1.30;100.00;92491.69;2081462;28;20029;-85
2021/05/06 04:29:58;;;;;;;23.65;7.63;;;;;;;1.43;100.00;92484.94;2065186;28;20428;-86
2021/05/06 04:37:14;;;;;;;11.32;8.13;;;;;;;1.70;100.00;92476.69;2121611;27;20015;-84
2021/05/06 04:38:18;;;;;;;12.25;8.20;;;;;;;1.67;100.00;92472.19;2117007;27;20115;-86
2021/05/06 04:39:27;;;;;;;11.23;7.65;;;;;;;1.63;100.00;92468.81;2098751;28;20016;-85
2021/05/06 04:41:46;;;;;;;11.10;5.18;;;;;;;1.64;100.00;92480.84;2090036;28;20017;-86
2021/05/06 04:54:43;;;;;;;10.73;3.00;;;;;;;1.96;100.00;92467.69;2114001;28;20027;-90
2021/05/06 04:55:51;;;;;;;8.23;3.65;;;;;;;1.98;100.00;92465.44;2110102;28;20097;-84
2021/05/06 04:57:04;;;;;;;11.45;3.90;;;;;;;1.99;100.00;92467.69;2107157;28;20028;-83
2021/05/06 05:05:31;;;;;;;11.95;4.20;;;;;;;1.97;100.00;92461.28;2110656;28;20100;-84
2021/05/06 05:06:39;;;;;;;12.38;4.50;;;;;;;2.01;100.00;92457.50;2106247;28;20020;-87
2021/05/06 05:07:44;;;;;;;12.88;5.07;;;;;;;1.99;100.00;92465.06;2089016;28;20079;-85
2021/05/06 05:09:03;;;;;;;10.85;4.10;;;;;;;2.07;100.00;92462.44;2096572;28;20024;-86
2021/05/06 05:11:34;;;;;;;8.98;4.07;;;;;;;2.11;100.00;92463.16;2107721;28;20036;-87
2021/05/06 05:18:31;;;;;;;10.30;3.85;;;;;;;2.27;100.00;92460.88;2085711;28;20041;-86
2021/05/06 05:23:39;;;;;;;10.18;3.60;;;;;;;2.39;100.00;92447.31;2105683;28;20354;-85
2021/05/06 05:25:45;;;;;;;9.00;3.10;;;;;;;2.39;100.00;92449.19;2099117;28;20020;-88
2021/05/06 05:26:46;;;;;;;12.10;3.28;;;;;;;2.57;100.00;92449.91;2098209;28;20462;-84
2021/05/06 05:27:48;;;;;;;9.90;3.45;;;;;;;2.61;100.00;92450.66;2097940;28;20075;-87
2021/05/06 05:28:48;;;;;;;9.43;3.20;;;;;;;2.66;100.00;92444.22;2097895;28;20028;-88
2021/05/06 05:29:52;;;;;;;9.30;3.15;;;;;;;2.75;100.00;92441.94;2094249;28;20078;-87
2021/05/06 05:30:53;;;;;;;5.57;2.70;;;;;;;2.75;100.00;92441.94;2098300;28;20048;-88
2021/05/06 05:31:53;;;;;;;9.90;2.58;;;;;;;2.77;100.00;92434.41;2106334;28;20035;-89
2021/05/06 05:32:54;;;;;;;11.65;3.90;;;;;;;2.80;100.00;92443.41;2097701;28;20078;-87
2021/05/06 05:34:06;;;;;;;14.68;3.20;;;;;;;2.82;100.00;92441.16;2100599;28;20130;-88
2021/05/06 05:35:22;;;;;;;9.15;3.10;;;;;;;2.90;100.00;92440.75;2099259;28;20032;-86
2021/05/06 05:36:24;;;;;;;7.82;4.97;;;;;;;2.88;100.00;92434.34;2096283;28;20029;-86
2021/05/06 05:37:30;;;;;;;10.23;4.55;;;;;;;2.82;100.00;92436.63;2106469;28;20027;-87
2021/05/06 05:38:38;;;;;;;16.13;6.28;;;;;;;2.84;100.00;92441.53;2098236;28;20473;-88
2021/05/06 05:39:50;;;;;;;9.77;4.47;;;;;;;2.82;100.00;92433.25;2107109;28;20028;-88
2021/05/06 05:43:12;;;;;;;7.88;2.92;;;;;;;2.81;100.00;92421.16;2108969;28;20558;-87
2021/05/06 05:55:06;;;;;;;10.00;4.43;;;;;;;3.09;99.38;92428.22;2105987;28;20024;-87
2021/05/06 05:56:07;;;;;;;11.73;3.83;;;;;;;3.03;100.00;92433.91;2108384;28;20028;-85
2021/05/06 05:57:10;;;;;;;12.90;4.32;;;;;;;3.08;100.00;92432.00;2096483;28;20024;-89
2021/05/06 05:58:11;;;;;;;10.68;4.20;;;;;;;3.22;99.13;92432.69;2089724;28;20025;-86
2021/05/06 05:59:12;;;;;;;14.40;4.35;;;;;;;3.21;100.00;92427.78;2082172;28;20122;-88
2021/05/06 06:00:13;;;;;;;9.45;3.50;;;;;;;3.22;100.00;92427.41;2092081;28;20036;-86
2021/05/06 06:01:14;;;;;;;10.48;3.55;;;;;;;3.33;100.00;92421.28;2100436;28;20457;-87
2021/05/06 06:02:14;;;;;;;13.38;3.45;;;;;;;3.39;100.00;92422.41;2105861;28;20054;-85
2021/05/06 06:03:15;;;;;;;8.30;3.25;;;;;;;3.46;99.74;92423.09;2105807;28;20020;-89
2021/05/06 06:04:16;;;;;;;9.52;3.20;;;;;;;3.44;100.00;92414.06;2097248;28;20025;-89
2021/05/06 06:05:17;;;;;;;12.07;3.60;;;;;;;3.45;100.00;92416.31;2093675;28;20029;-89
2021/05/06 06:06:17;;;;;;;9.60;3.55;;;;;;;3.53;100.00;92417.03;2088336;28;20024;-87
2021/05/06 06:07:18;;;;;;;8.95;2.90;;;;;;;3.49;100.00;92413.66;2097608;28;20021;-88
2021/05/06 06:08:23;;;;;;;10.82;3.70;;;;;;;3.53;100.00;92419.66;2106779;28;20162;-85
2021/05/06 06:09:24;;;;;;;9.07;3.03;;;;;;;3.46;100.00;92409.88;2097498;28;20121;-88
2021/05/06 06:10:25;;;;;;;9.27;3.10;;;;;;;3.50;100.00;92407.22;2105623;28;20079;-86
2021/05/06 06:11:26;;;;;;;10.15;3.80;;;;;;;3.56;100.00;92404.91;2101460;28;20024;-85
2021/05/06 06:12:26;;;;;;;10.30;3.15;;;;;;;3.64;99.98;92419.59;2104672;28;20016;-88
2021/05/06 06:13:27;;;;;;;7.72;2.88;;;;;;;3.72;100.00;92407.81;2097268;28;20024;-87
2021/05/06 06:14:37;;;;;;;7.20;3.00;;;;;;;3.83;100.00;92411.16;2080776;28;20029;-86
2021/05/06 06:16:01;;;;;;;13.93;3.33;;;;;;;3.98;99.93;92417.81;2099465;28;20024;-84
2021/05/06 06:16:59;;;;;;;10.18;3.00;;;;;;;4.06;98.36;92418.50;2109189;28;20080;-87
2021/05/06 06:18:15;;;;;;;13.38;3.10;;;;;;;4.21;98.91;92419.88;2096997;28;20099;-85
2021/05/06 06:19:18;;;;;;;27.35;12.60;;;;;;;4.17;98.41;92416.53;2093664;28;20111;-85
2021/05/06 06:20:19;;;;;;;27.52;7.82;;;;;;;4.15;99.17;92413.50;2097447;28;20076;-87
2021/05/06 06:22:21;;;;;;;14.20;4.63;;;;;;;4.21;100.00;92416.47;2105437;28;20423;-87
2021/05/06 06:23:22;;;;;;;9.30;3.15;;;;;;;4.17;100.00;92408.59;2092522;28;20497;-83
2021/05/06 06:24:22;;;;;;;12.60;3.42;;;;;;;4.33;100.00;92405.41;2098228;28;20024;-86
2021/05/06 06:25:23;;;;;;;7.55;2.95;;;;;;;4.35;98.52;92405.78;2097199;28;20449;-87
2021/05/06 06:26:24;;;;;;;8.05;3.97;;;;;;;4.37;99.89;92405.38;2088676;28;20413;-87
2021/05/06 06:27:25;;;;;;;7.93;4.32;;;;;;;4.37;99.55;92418.59;2097197;28;20028;-87
2021/05/06 06:28:27;;;;;;;9.82;3.25;;;;;;;4.62;96.12;92410.41;2103454;28;20032;-86
2021/05/06 06:29:33;;;;;;;12.60;4.00;;;;;;;4.58;94.99;92404.41;2104529;28;20080;-84
2021/05/06 06:30:35;;;;;;;7.45;3.15;;;;;;;4.68;91.97;92399.00;2088862;28;20017;-86
2021/05/06 06:31:40;;;;;;;9.55;3.58;;;;;;;4.49;92.96;92396.94;2090526;28;20445;-88
2021/05/06 06:32:41;;;;;;;9.20;3.92;;;;;;;4.45;95.21;92394.31;2109902;28;20115;-88
2021/05/06 06:33:41;;;;;;;8.13;4.22;;;;;;;4.41;95.66;92388.31;2096734;28;20409;-88
2021/05/06 06:34:42;;;;;;;13.02;5.53;;;;;;;4.71;95.18;92392.16;2097104;28;20017;-86
2021/05/06 06:35:43;;;;;;;8.25;3.13;;;;;;;4.49;94.39;92389.00;2101151;28;20028;-84
2021/05/06 06:36:45;;;;;;;12.68;4.15;;;;;;;4.44;94.00;92390.19;2098673;28;20782;-87
2021/05/06 06:37:46;;;;;;;9.80;3.83;;;;;;;4.46;94.54;92389.78;2093690;28;20036;-86
2021/05/06 06:38:47;;;;;;;9.43;3.17;;;;;;;4.38;94.60;92386.44;2090568;28;20052;-89
2021/05/06 06:39:47;;;;;;;9.38;3.30;;;;;;;4.22;95.76;92396.84;2084428;28;20467;-87
2021/05/06 06:40:48;;;;;;;8.95;3.83;;;;;;;4.13;96.74;92389.38;2090575;28;20056;-90
2021/05/06 06:41:49;;;;;;;11.38;3.20;;;;;;;4.13;97.07;92386.72;2106814;28;20027;-87
2021/05/06 06:42:50;;;;;;;7.60;3.00;;;;;;;4.06;97.03;92388.66;2088385;28;20480;-86
2021/05/06 06:43:53;;;;;;;7.65;3.33;;;;;;;4.12;96.33;92385.19;2100144;28;20028;-87
2021/05/06 06:44:54;;;;;;;7.07;2.97;;;;;;;4.19;96.27;92374.56;2107954;28;20157;-85
2021/05/06 06:45:54;;;;;;;10.40;2.90;;;;;;;4.32;95.67;92382.00;2096011;28;20585;-86
2021/05/06 06:47:03;;;;;;;8.13;3.22;;;;;;;4.13;96.20;92384.06;2088925;28;20072;-85
2021/05/06 06:48:04;;;;;;;9.73;3.53;;;;;;;4.26;96.66;92385.06;2106941;28;20028;-83
2021/05/06 06:49:05;;;;;;;13.48;3.33;;;;;;;4.26;96.24;92386.97;2115524;28;20074;-84
2021/05/06 06:50:06;;;;;;;10.00;3.17;;;;;;;4.42;95.21;92378.47;2090698;28;20052;-85
2021/05/06 06:51:07;;;;;;;7.85;2.95;;;;;;;4.43;94.02;92380.72;2094263;28;20025;-85
2021/05/06 06:52:10;;;;;;;9.57;3.80;;;;;;;4.35;96.24;92381.97;2103940;28;20026;-87
2021/05/06 06:53:13;;;;;;;10.50;3.30;;;;;;;4.47;92.04;92383.34;2106867;28;20493;-86
2021/05/06 06:54:13;;;;;;;7.47;2.53;;;;;;;4.53;91.34;92377.22;2104646;28;20129;-85
2021/05/06 06:55:15;;;;;;;6.20;3.28;;;;;;;4.55;94.34;92380.22;2093101;28;20028;-85
2021/05/06 06:56:15;;;;;;;6.38;2.97;;;;;;;4.61;93.69;92377.91;2093137;28;20123;-85
2021/05/06 06:57:16;;;;;;;13.18;2.65;;;;;;;4.58;92.69;92372.66;2092078;28;20022;-87
2021/05/06 06:58:17;;;;;;;9.75;3.25;;;;;;;4.54;92.83;92370.03;2095946;28;20037;-87
2021/05/06 06:59:19;;;;;;;15.02;3.33;;;;;;;4.57;94.63;92365.88;2104426;28;20058;-86
2021/05/06 07:00:19;;;;;;;10.02;3.00;;;;;;;4.59;94.74;92364.31;2096395;28;20028;-87
2021/05/06 07:01:20;;;;;;;10.50;3.30;;;;;;;4.55;93.22;92374.94;2093616;28;20082;-87
2021/05/06 07:02:21;;;;;;;6.55;3.00;;;;;;;4.62;94.97;92382.06;2098506;28;20024;-85
2021/05/06 07:03:22;;;;;;;9.60;3.00;;;;;;;4.62;93.26;92379.41;2095012;28;20355;-85
2021/05/06 07:04:23;;;;;;;9.23;2.80;;;;;;;4.65;94.85;92381.25;2095186;28;20091;-87
2021/05/06 07:05:23;;;;;;;11.23;3.75;;;;;;;4.65;96.48;92385.78;2091635;28;20120;-85
2021/05/06 07:06:24;;;;;;;8.98;3.08;;;;;;;4.59;96.24;92384.72;2090015;28;20032;-86
2021/05/06 07:07:25;;;;;;;7.18;3.03;;;;;;;4.59;97.35;92384.72;2089991;28;20013;-86
2021/05/06 07:08:32;;;;;;;8.55;3.35;;;;;;;4.61;97.77;92372.63;2097102;28;20056;-84
2021/05/06 07:09:33;;;;;;;10.30;3.03;;;;;;;4.57;98.76;92373.81;2099145;28;20047;-84
2021/05/06 07:10:34;;;;;;;12.27;3.55;;;;;;;4.58;96.85;92367.34;2098017;28;20466;-86
2021/05/06 07:11:36;;;;;;;5.88;2.97;;;;;;;4.67;96.10;92371.03;2092759;28;20096;-87
2021/05/06 07:12:36;;;;;;;10.48;3.17;;;;;;;4.53;97.79;92371.19;2098406;28;20032;-88
2021/05/06 07:13:37;;;;;;;11.18;3.60;;;;;;;4.43;98.25;92380.72;2092261;28;20485;-87
2021/05/06 07:14:38;;;;;;;22.80;10.73;;;;;;;4.49;97.99;92384.47;2097854;28;20102;-86
2021/05/06 07:15:39;;;;;;;47.50;21.65;;;;;;;4.47;99.15;92388.63;2101906;28;20802;-86
2021/05/06 07:16:40;;;;;;;12.05;4.07;;;;;;;4.55;95.44;92390.06;2112463;28;20023;-85
2021/05/06 07:17:41;;;;;;;24.58;11.43;;;;;;;4.67;96.94;92392.19;2105572;28;20024;-86
2021/05/06 07:18:41;;;;;;;27.85;10.80;;;;;;;4.81;93.55;92393.94;2090361;28;20021;-84
2021/05/06 07:19:43;;;;;;;9.68;3.72;;;;;;;4.87;90.64;92389.69;2087338;28;20551;-88
2021/05/06 07:20:45;;;;;;;6.97;3.33;;;;;;;4.83;93.10;92396.94;2097987;28;20056;-87
2021/05/06 07:21:46;;;;;;;7.25;2.55;;;;;;;4.86;89.41;92388.19;2106842;28;20035;-86
2021/05/06 07:22:47;;;;;;;10.07;3.15;;;;;;;4.83;92.56;92393.53;2098546;28;20108;-84
2021/05/06 07:23:47;;;;;;;9.07;2.70;;;;;;;4.92;90.70;92391.16;2098365;28;20025;-85
2021/05/06 07:24:48;;;;;;;9.60;2.97;;;;;;;4.77;95.13;92391.31;2098215;28;20028;-84
2021/05/06 07:25:51;;;;;;;9.32;3.30;;;;;;;4.78;95.44;92392.06;2114828;28;20059;-86
2021/05/06 07:26:51;;;;;;;7.53;3.00;;;;;;;4.68;96.02;92403.53;2095510;28;20115;-86
2021/05/06 07:27:52;;;;;;;15.38;3.65;;;;;;;4.61;96.87;92390.38;2090115;28;20029;-87
2021/05/06 07:28:53;;;;;;;10.80;2.95;;;;;;;4.68;94.84;92390.28;2090299;28;20032;-87
2021/05/06 07:29:54;;;;;;;11.38;4.10;;;;;;;4.59;93.50;92392.66;2098260;28;21155;-85
2021/05/06 07:30:55;;;;;;;10.48;3.45;;;;;;;4.49;92.20;92389.75;2107001;28;20120;-85
2021/05/06 07:31:55;;;;;;;8.68;2.83;;;;;;;4.63;91.52;92383.53;2100302;28;20028;-88
2021/05/06 07:32:56;;;;;;;11.02;3.00;;;;;;;4.54;95.65;92384.00;2107688;28;20028;-85
2021/05/06 07:33:57;;;;;;;6.15;2.72;;;;;;;4.64;92.05;92386.94;2101523;28;20027;-88
2021/05/06 07:34:57;;;;;;;8.95;2.60;;;;;;;4.60;94.11;92383.56;2096416;28;20021;-84
2021/05/06 07:35:59;;;;;;;8.63;3.03;;;;;;;4.58;94.77;92391.19;2101574;28;20028;-86
2021/05/06 07:37:00;;;;;;;12.80;2.90;;;;;;;4.63;90.43;92388.09;2102474;28;20476;-85
2021/05/06 07:38:00;;;;;;;8.80;2.75;;;;;;;4.54;94.83;92385.91;2094856;28;20024;-87
2021/05/06 07:39:01;;;;;;;9.45;2.90;;;;;;;4.69;93.58;92379.31;2105420;28;20460;-84
2021/05/06 07:40:03;;;;;;;9.07;2.80;;;;;;;4.68;92.75;92377.81;2097524;28;20028;-85
2021/05/06 07:41:04;;;;;;;9.02;2.35;;;;;;;4.70;91.71;92380.06;2094095;28;20149;-86
2021/05/06 07:42:05;;;;;;;6.70;2.92;;;;;;;4.84;93.00;92381.81;2090069;28;20025;-87
2021/05/06 07:43:06;;;;;;;10.48;3.00;;;;;;;4.59;93.95;92377.53;2099148;28;20851;-85
2021/05/06 07:44:07;;;;;;;7.85;2.85;;;;;;;4.71;95.05;92378.94;2094989;28;20086;-84
2021/05/06 07:45:08;;;;;;;6.20;2.50;;;;;;;4.71;91.77;92370.97;2085945;28;20024;-87
2021/05/06 07:46:09;;;;;;;8.93;2.80;;;;;;;4.84;91.79;92379.91;2093501;28;20107;-87
2021/05/06 07:47:13;;;;;;;10.73;3.17;;;;;;;4.87;91.36;92373.03;2088067;28;20025;-88
2021/05/06 07:48:13;;;;;;;9.52;2.67;;;;;;;4.85;93.04;92376.09;2090429;28;20035;-86
2021/05/06 07:49:14;;;;;;;9.95;3.22;;;;;;;4.90;95.34;92388.16;2108441;28;20480;-84
2021/05/06 07:50:17;;;;;;;7.25;2.92;;;;;;;4.78;96.84;92379.59;2101449;28;20024;-83
2021/05/06 07:51:19;;;;;;;9.88;3.00;;;;;;;4.88;98.57;92380.63;2106787;28;20047;-85
2021/05/06 07:52:20;;;;;;;6.53;2.50;;;;;;;5.03;96.46;92386.47;2106291;28;20020;-88
2021/05/06 07:53:34;;;;;;;12.55;6.03;;;;;;;5.03;96.71;92381.19;2093055;28;20055;-85
2021/05/06 07:54:36;;;;;;;6.38;3.58;;;;;;;5.10;95.48;92386.38;2095844;28;20032;-85
2021/05/06 07:55:37;;;;;;;9.73;3.78;;;;;;;5.10;95.06;92385.63;2100302;28;20024;-87
2021/05/06 07:56:38;;;;;;;10.93;3.40;;;;;;;5.07;96.19;92383.78;2095742;28;20532;-87
2021/05/06 07:57:39;;;;;;;6.57;2.97;;;;;;;4.91;95.13;92385.09;2091750;28;20111;-84
2021/05/06 07:58:40;;;;;;;4.97;3.00;;;;;;;4.94;93.43;92383.56;2090351;28;20021;-86
2021/05/06 07:59:41;;;;;;;7.22;2.75;;;;;;;4.75;97.07;92384.94;2101600;28;20059;-87
2021/05/06 08:00:42;;;;;;;8.63;3.25;;;;;;;4.83;98.39;92378.41;2105180;28;20016;-86
2021/05/06 08:01:43;;;;;;;7.70;2.58;;;;;;;4.86;91.81;92380.25;2103515;28;20115;-86
2021/05/06 08:02:46;;;;;;;9.05;2.53;;;;;;;5.00;92.42;92380.09;2106597;28;20027;-89
2021/05/06 08:03:47;;;;;;;7.90;2.70;;;;;;;5.02;88.85;92375.13;2098735;28;20051;-84
2021/05/06 08:04:48;;;;;;;8.48;3.00;;;;;;;5.02;94.13;92380.44;2109398;28;20052;-86
2021/05/06 08:05:53;;;;;;;7.85;2.90;;;;;;;4.99;96.83;92381.22;2097919;28;20134;-86
2021/05/06 08:06:54;;;;;;;8.00;2.33;;;;;;;5.13;93.72;92382.19;2090749;28;20033;-85
2021/05/06 08:07:54;;;;;;;8.90;2.88;;;;;;;4.99;93.70;92389.16;2106366;28;20039;-84
2021/05/06 08:08:56;;;;;;;6.50;2.70;;;;;;;4.99;95.34;92375.91;2106442;28;20024;-87
2021/05/06 08:09:56;;;;;;;6.55;2.70;;;;;;;5.10;96.89;92391.69;2098109;28;20505;-87
2021/05/06 08:10:58;;;;;;;8.82;2.80;;;;;;;5.06;96.35;92393.63;2098261;28;20111;-86
2021/05/06 08:12:01;;;;;;;9.93;3.05;;;;;;;5.11;96.15;92381.84;2098050;28;20030;-86
2021/05/06 08:13:02;;;;;;;8.95;2.40;;;;;;;5.07;94.42;92386.44;2113282;28;20019;-87
2021/05/06 08:14:03;;;;;;;8.30;2.70;;;;;;;5.02;95.83;92390.28;2102542;28;20024;-86
2021/05/06 08:15:07;;;;;;;7.93;2.47;;;;;;;5.00;92.98;92380.09;2101549;28;20436;-87
2021/05/06 08:16:08;;;;;;;4.65;2.30;;;;;;;5.05;92.97;92387.59;2098489;28;20032;-87
2021/05/06 08:17:09;;;;;;;3.97;2.58;;;;;;;4.97;91.12;92394.13;2095605;28;20020;-86
2021/05/06 08:18:10;;;;;;;6.50;2.45;;;;;;;4.85;95.20;92375.34;2093741;28;20071;-87
2021/05/06 08:19:10;;;;;;;6.85;2.38;;;;;;;4.91;92.51;92387.00;2097423;28;20024;-87
2021/05/06 08:20:13;;;;;;;8.50;2.75;;;;;;;4.83;89.22;92382.94;2089404;28;20017;-87